createdAt,value
2023-01-11T00:00:50.088Z,58.50
2023-01-11T00:03:20.326Z,59.24
2023-01-11T00:05:50.537Z,56.39
2023-01-11T00:08:22.445Z,55.81
2023-01-11T00:10:53.107Z,58.02
2023-01-11T00:13:23.140Z,57.23
2023-01-11T00:15:54.298Z,56.55
2023-01-11T00:18:24.549Z,55.79
2023-01-11T00:20:54.129Z,58.54
2023-01-11T00:23:24.049Z,57.97
2023-01-11T00:25:53.734Z,57.41
2023-01-11T00:28:23.139Z,58.68
2023-01-11T00:30:54.275Z,57.70
2023-01-11T00:33:24.489Z,56.43
2023-01-11T00:35:54.800Z,57.84
2023-01-11T00:38:42.876Z,58.60
2023-01-11T00:41:27.450Z,60.00
2023-01-11T00:44:15.064Z,57.03
2023-01-11T00:47:04.688Z,56.76
2023-01-11T00:49:34.779Z,57.44
2023-01-11T00:52:09.326Z,58.33
2023-01-11T00:54:39.880Z,58.33
2023-01-11T00:57:10.405Z,57.21
2023-01-11T00:59:41.129Z,59.46
2023-01-11T01:02:13.281Z,57.36
2023-01-11T01:04:43.849Z,59.37
2023-01-11T01:07:13.937Z,57.69
2023-01-11T01:09:44.073Z,58.22
2023-01-11T01:12:34.877Z,57.33
2023-01-11T01:15:04.442Z,57.68
2023-01-11T01:17:36.061Z,56.14
2023-01-11T01:20:07.113Z,57.97
2023-01-11T01:22:37.095Z,57.12
2023-01-11T01:25:07.582Z,61.11
2023-01-11T01:27:37.818Z,59.13
2023-01-11T01:30:09.534Z,58.34
2023-01-11T01:32:40.717Z,57.61
2023-01-11T01:35:12.160Z,57.92
2023-01-11T01:37:42.675Z,58.94
2023-01-11T01:40:14.503Z,56.87
2023-01-11T01:42:45.169Z,59.12
2023-01-11T01:45:24.306Z,59.73
2023-01-11T01:47:59.213Z,59.10
2023-01-11T01:50:32.336Z,58.72
2023-01-11T01:53:04.633Z,57.29
2023-01-11T01:55:37.289Z,58.71
2023-01-11T01:58:10.657Z,59.68
2023-01-11T02:00:41.704Z,58.53
2023-01-11T02:03:13.978Z,59.87
2023-01-11T02:05:43.443Z,60.83
2023-01-11T02:08:18.614Z,60.75
2023-01-11T02:10:48.403Z,62.27
2023-01-11T02:13:18.659Z,60.47
2023-01-11T02:16:08.163Z,59.45
2023-01-11T02:18:40.369Z,58.88
2023-01-11T02:21:23.938Z,57.70
2023-01-11T02:24:06.246Z,57.45
2023-01-11T02:27:00.819Z,60.41
2023-01-11T02:29:51.735Z,58.92
2023-01-11T02:32:28.109Z,60.39
2023-01-11T02:35:04.970Z,58.73
2023-01-11T02:37:40.097Z,60.44
2023-01-11T02:40:16.129Z,60.21
2023-01-11T02:43:09.908Z,58.41
2023-01-11T02:45:49.341Z,58.54
2023-01-11T02:48:24.929Z,57.86
2023-01-11T02:51:00.549Z,59.23
2023-01-11T02:53:34.733Z,58.41
2023-01-11T02:56:08.574Z,60.13
2023-01-11T02:58:40.875Z,60.56
2023-01-11T03:01:12.193Z,61.54
2023-01-11T03:03:41.896Z,62.13
2023-01-11T03:06:17.419Z,61.79
2023-01-11T03:09:16.633Z,59.11
2023-01-11T03:12:14.855Z,60.65
2023-01-11T03:14:52.817Z,57.94
2023-01-11T03:17:40.198Z,60.02
2023-01-11T03:20:13.296Z,57.96
2023-01-11T03:22:52.016Z,61.20
2023-01-11T03:25:25.519Z,57.79
2023-01-11T03:27:59.825Z,60.42
2023-01-11T03:30:36.612Z,60.51
2023-01-11T03:33:12.383Z,57.56
2023-01-11T03:35:45.792Z,57.78
2023-01-11T03:38:19.623Z,58.95
2023-01-11T03:40:51.593Z,57.81
2023-01-11T03:43:22.696Z,57.08
2023-01-11T03:45:56.204Z,58.85
2023-01-11T03:48:32.711Z,58.67
2023-01-11T03:51:03.879Z,58.55
2023-01-11T03:53:37.253Z,59.27
2023-01-11T03:56:11.008Z,58.59
2023-01-11T03:58:40.961Z,57.33
2023-01-11T04:01:11.287Z,59.37
2023-01-11T04:03:42.943Z,61.61
2023-01-11T04:06:13.894Z,60.50
2023-01-11T04:08:43.955Z,58.08
2023-01-11T04:11:13.878Z,57.92
2023-01-11T04:13:43.938Z,58.64
2023-01-11T04:16:14.202Z,59.46
2023-01-11T04:18:46.038Z,58.16
2023-01-11T04:21:16.311Z,59.43
2023-01-11T04:23:46.780Z,59.91
2023-01-11T04:26:17.832Z,61.00
2023-01-11T04:28:47.595Z,60.80
2023-01-11T04:31:18.083Z,60.44
2023-01-11T04:33:49.194Z,59.70
2023-01-11T04:36:19.333Z,59.92
2023-01-11T04:38:49.113Z,60.67
2023-01-11T04:41:36.499Z,60.70
2023-01-11T04:44:06.788Z,60.64
2023-01-11T04:46:36.759Z,59.67
2023-01-11T04:49:08.045Z,59.77
2023-01-11T04:51:38.257Z,61.13
2023-01-11T04:54:08.770Z,60.81
2023-01-11T04:56:38.759Z,60.82
2023-01-11T04:59:08.373Z,60.82
2023-01-11T05:01:38.674Z,61.91
2023-01-11T05:04:12.660Z,63.04
2023-01-11T05:06:43.587Z,61.46
2023-01-11T05:09:15.053Z,60.80
2023-01-11T05:11:45.436Z,60.61
2023-01-11T05:14:15.209Z,59.36
2023-01-11T05:16:45.378Z,61.69
2023-01-11T05:19:17.181Z,60.40
2023-01-11T05:21:47.449Z,61.33
2023-01-11T05:24:18.126Z,60.92
2023-01-11T05:26:50.310Z,59.22
2023-01-11T05:29:21.216Z,60.48
2023-01-11T05:31:51.595Z,59.72
2023-01-11T05:34:23.138Z,61.32
2023-01-11T05:36:52.964Z,61.29
2023-01-11T05:39:24.325Z,61.40
2023-01-11T05:41:54.049Z,59.77
2023-01-11T05:44:41.417Z,61.25
2023-01-11T05:47:11.369Z,60.41
2023-01-11T05:49:42.757Z,60.90
2023-01-11T05:52:13.108Z,59.85
2023-01-11T05:54:43.797Z,61.42
2023-01-11T05:57:14.573Z,61.12
2023-01-11T05:59:44.755Z,61.46
2023-01-11T06:02:14.633Z,60.56
2023-01-11T06:04:46.911Z,58.54
2023-01-11T06:07:16.657Z,59.38
2023-01-11T06:09:47.273Z,59.92
2023-01-11T06:12:17.247Z,60.96
2023-01-11T06:14:47.479Z,60.08
2023-01-11T06:17:17.350Z,61.29
2023-01-11T06:19:49.878Z,63.13
2023-01-11T06:22:19.564Z,60.09
2023-01-11T06:24:49.836Z,58.98
2023-01-11T06:27:19.702Z,60.77
2023-01-11T06:29:50.145Z,59.25
2023-01-11T06:32:20.207Z,64.50
2023-01-11T06:34:52.179Z,62.34
2023-01-11T06:37:22.416Z,62.24
2023-01-11T06:39:53.102Z,62.13
2023-01-11T06:42:22.948Z,62.15
2023-01-11T06:44:52.902Z,60.14
2023-01-11T06:47:23.368Z,60.91
2023-01-11T06:49:54.662Z,62.50
2023-01-11T06:52:24.984Z,60.00
2023-01-11T06:54:54.652Z,60.75
2023-01-11T06:57:24.864Z,62.86
2023-01-11T06:59:54.857Z,63.47
2023-01-11T07:02:25.248Z,64.00
2023-01-11T07:04:57.113Z,60.16
2023-01-11T07:07:26.884Z,61.23
2023-01-11T07:09:57.140Z,62.07
2023-01-11T07:12:26.957Z,59.97
2023-01-11T07:14:56.343Z,60.67
2023-01-11T07:17:25.773Z,61.16
2023-01-11T07:19:57.468Z,60.89
2023-01-11T07:22:27.283Z,61.32
2023-01-11T07:24:56.913Z,61.29
2023-01-11T07:27:27.228Z,59.41
2023-01-11T07:30:00.236Z,61.50
2023-01-11T07:32:30.244Z,60.40
2023-01-11T07:35:01.856Z,60.63
2023-01-11T07:37:33.340Z,61.04
2023-01-11T07:40:03.921Z,61.04
2023-01-11T07:42:51.388Z,62.45
2023-01-11T07:45:21.962Z,61.69
2023-01-11T07:47:53.200Z,63.41
2023-01-11T07:50:24.632Z,60.00
2023-01-11T07:52:54.524Z,62.31
2023-01-11T07:55:25.163Z,61.85
2023-01-11T07:57:57.603Z,61.32
2023-01-11T08:00:28.988Z,60.31
2023-01-11T08:02:59.584Z,60.77
2023-01-11T08:05:31.229Z,60.62
2023-01-11T08:08:00.873Z,59.92
2023-01-11T08:10:30.829Z,60.89
2023-01-11T08:13:17.886Z,62.57
2023-01-11T08:15:48.235Z,61.12
2023-01-11T08:18:19.885Z,60.62
2023-01-11T08:20:54.814Z,60.50
2023-01-11T08:23:26.130Z,60.20
2023-01-11T08:25:59.625Z,60.02
2023-01-11T08:28:30.128Z,63.40
2023-01-11T08:31:00.364Z,63.04
2023-01-11T08:33:30.640Z,61.46
2023-01-11T08:36:06.833Z,61.88
2023-01-11T08:38:36.615Z,63.19
2023-01-11T08:41:11.050Z,62.41
2023-01-11T08:43:41.761Z,61.90
2023-01-11T08:46:12.812Z,61.90
2023-01-11T08:48:42.720Z,61.12
2023-01-11T08:51:14.998Z,61.80
2023-01-11T08:53:45.173Z,62.23
2023-01-11T08:56:15.242Z,60.84
2023-01-11T08:58:45.252Z,61.59
2023-01-11T09:01:14.996Z,60.53
2023-01-11T09:03:45.300Z,60.94
2023-01-11T09:06:19.243Z,60.47
2023-01-11T09:08:49.998Z,59.54
2023-01-11T09:11:37.419Z,59.50
2023-01-11T09:14:08.466Z,61.32
2023-01-11T09:16:38.167Z,59.26
2023-01-11T09:19:08.520Z,60.08
2023-01-11T09:21:39.819Z,59.27
2023-01-11T09:24:09.907Z,59.21
2023-01-11T09:26:41.992Z,59.20
2023-01-11T09:29:12.452Z,58.95
2023-01-11T09:31:42.647Z,61.00
2023-01-11T09:34:13.690Z,60.76
2023-01-11T09:36:47.759Z,58.61
2023-01-11T09:39:20.960Z,58.69
2023-01-11T09:42:07.663Z,56.91
2023-01-11T09:44:51.813Z,55.95
2023-01-11T09:47:36.964Z,56.17
2023-01-11T09:50:13.859Z,57.03
2023-01-11T09:52:47.670Z,57.38
2023-01-11T09:55:24.900Z,57.92
2023-01-11T09:58:29.566Z,55.86
2023-01-11T10:01:07.465Z,55.92
2023-01-11T10:04:06.556Z,55.69
2023-01-11T10:06:45.129Z,55.20
2023-01-11T10:18:33.920Z,55.82
2023-01-11T10:18:48.772Z,55.71
2023-01-11T10:21:16.224Z,55.73
2023-01-11T10:23:50.835Z,56.65
2023-01-11T10:26:32.539Z,60.30
2023-01-11T10:29:22.755Z,59.64
2023-01-11T10:32:34.843Z,59.25
2023-01-11T10:35:48.325Z,58.84
2023-01-11T10:38:44.086Z,57.59
2023-01-11T10:41:26.491Z,59.16
2023-01-11T10:44:12.701Z,58.60
2023-01-11T10:46:46.017Z,60.36
2023-01-11T10:49:34.536Z,61.33
2023-01-11T10:52:21.784Z,60.79
2023-01-11T10:54:56.248Z,61.31
2023-01-11T10:57:39.539Z,61.49
2023-01-11T11:00:36.836Z,62.10
2023-01-11T11:03:24.789Z,60.46
2023-01-11T11:05:59.471Z,60.37
2023-01-11T11:08:33.219Z,60.60
2023-01-11T11:11:08.814Z,59.13
2023-01-11T11:13:49.299Z,57.59
2023-01-11T11:16:34.573Z,60.21
2023-01-11T11:19:05.210Z,57.82
2023-01-11T11:21:39.308Z,58.76
2023-01-11T11:24:16.328Z,57.81
2023-01-11T11:26:49.219Z,58.97
2023-01-11T11:29:29.403Z,58.34
2023-01-11T11:32:02.565Z,59.96
2023-01-11T11:34:33.083Z,58.85
2023-01-11T11:37:02.897Z,59.21
2023-01-11T11:39:34.553Z,59.08
2023-01-11T11:42:10.501Z,59.36
2023-01-11T11:44:40.786Z,58.57
2023-01-11T11:47:18.128Z,57.95
2023-01-11T11:49:48.610Z,59.03
2023-01-11T11:52:20.475Z,57.07
2023-01-11T11:54:56.625Z,57.54
2023-01-11T11:57:29.130Z,58.77
2023-01-11T12:00:05.988Z,58.10
2023-01-11T12:02:47.199Z,56.15
2023-01-11T12:05:18.099Z,57.30
2023-01-11T12:07:55.060Z,58.14
2023-01-11T12:10:27.302Z,59.14
2023-01-11T12:12:58.944Z,58.75
2023-01-11T12:15:30.320Z,59.45
2023-01-11T12:18:26.109Z,58.66
2023-01-11T12:20:56.496Z,58.20
2023-01-11T12:23:28.410Z,58.30
2023-01-11T12:26:22.764Z,59.00
2023-01-11T12:29:37.188Z,57.13
2023-01-11T12:32:24.223Z,56.38
2023-01-11T12:35:26.397Z,57.11
2023-01-11T12:38:08.349Z,59.49
2023-01-11T12:40:47.219Z,58.37
2023-01-11T12:43:34.535Z,57.12
2023-01-11T12:46:10.694Z,56.82
2023-01-11T12:48:55.901Z,55.81
2023-01-11T12:51:39.234Z,56.14
2023-01-11T12:54:28.313Z,57.31
2023-01-11T12:57:09.007Z,55.03
2023-01-11T13:00:03.871Z,56.41
2023-01-11T13:03:13.479Z,56.17
2023-01-11T13:05:54.099Z,57.93
2023-01-11T13:08:32.898Z,58.00
2023-01-11T13:11:12.207Z,55.60
2023-01-11T13:13:53.063Z,56.19
2023-01-11T13:16:27.964Z,57.83
2023-01-11T13:19:02.062Z,58.16
2023-01-11T13:21:34.886Z,56.15
2023-01-11T13:24:10.393Z,56.00
2023-01-11T13:26:42.742Z,56.12
2023-01-11T13:29:16.971Z,54.95
2023-01-11T13:31:48.555Z,55.18
2023-01-11T13:34:22.078Z,55.16
2023-01-11T13:36:55.479Z,55.02
2023-01-11T13:39:31.175Z,52.91
2023-01-11T13:42:05.581Z,54.96
2023-01-11T13:44:39.041Z,54.29
2023-01-11T13:47:11.072Z,53.09
2023-01-11T13:49:51.460Z,53.40
2023-01-11T13:52:24.562Z,52.58
2023-01-11T13:55:03.194Z,53.41
2023-01-11T13:57:38.992Z,52.93
2023-01-11T14:00:20.593Z,52.30
2023-01-11T14:02:54.782Z,52.67
2023-01-11T14:05:25.456Z,53.38
2023-01-11T14:08:09.768Z,53.38
2023-01-11T14:10:49.049Z,54.43
2023-01-11T14:13:51.338Z,54.77
2023-01-11T14:16:26.696Z,55.12
2023-01-11T14:19:01.644Z,54.91
2023-01-11T14:21:40.895Z,56.15
2023-01-11T14:24:12.528Z,55.47
2023-01-11T14:27:02.005Z,55.78
2023-01-11T14:30:00.055Z,56.00
2023-01-11T14:33:00.661Z,55.92
2023-01-11T14:35:53.952Z,56.06
2023-01-11T14:38:42.128Z,56.75
2023-01-11T14:41:37.886Z,55.76
2023-01-11T14:44:19.656Z,56.31
2023-01-11T14:47:08.720Z,55.01
2023-01-11T14:49:53.761Z,54.82
2023-01-11T14:52:39.130Z,54.11
2023-01-11T14:55:18.117Z,55.09
2023-01-11T14:58:06.910Z,56.31
2023-01-11T15:01:15.058Z,56.04
2023-01-11T15:03:58.106Z,57.18
2023-01-11T15:06:33.641Z,55.90
2023-01-11T15:09:04.007Z,56.75
2023-01-11T15:11:39.276Z,54.67
2023-01-11T15:14:26.158Z,54.51
2023-01-11T15:17:15.797Z,54.63
2023-01-11T15:19:49.450Z,55.13
2023-01-11T15:22:28.005Z,54.94
2023-01-11T15:25:01.384Z,55.96
2023-01-11T15:27:35.565Z,55.68
2023-01-11T15:30:09.321Z,56.19
2023-01-11T15:32:41.823Z,55.39
2023-01-11T15:35:37.581Z,55.91
2023-01-11T15:38:14.367Z,56.41
2023-01-11T15:40:46.916Z,55.16
2023-01-11T15:43:50.845Z,56.54
2023-01-11T15:46:54.698Z,58.46
2023-01-11T15:49:45.740Z,57.40
2023-01-11T15:52:53.112Z,57.30
2023-01-11T15:55:58.658Z,57.03
2023-01-11T15:58:58.233Z,55.87
2023-01-11T16:01:29.751Z,57.23
2023-01-11T16:04:06.769Z,58.03
2023-01-11T16:06:45.521Z,59.28
2023-01-11T16:09:46.221Z,58.36
2023-01-11T16:12:57.610Z,56.79
2023-01-11T16:15:38.730Z,56.70
2023-01-11T16:18:16.277Z,58.26
2023-01-11T16:20:57.537Z,59.04
2023-01-11T16:23:28.151Z,58.33
2023-01-11T16:25:59.448Z,59.09
2023-01-11T16:28:30.242Z,60.14
2023-01-11T16:31:02.829Z,58.54
2023-01-11T16:33:35.569Z,57.11
2023-01-11T16:36:14.173Z,57.96
2023-01-11T16:39:02.172Z,58.15
2023-01-11T16:41:36.686Z,57.35
2023-01-11T16:44:09.884Z,57.30
2023-01-11T16:47:09.301Z,59.43
2023-01-11T16:49:40.989Z,59.28
2023-01-11T16:52:38.103Z,59.85
2023-01-11T16:55:40.375Z,59.55
2023-01-11T16:58:22.128Z,57.87
2023-01-11T17:01:00.685Z,59.19
2023-01-11T17:03:31.926Z,59.19
2023-01-11T17:06:16.134Z,59.65
2023-01-11T17:08:47.412Z,59.31
2023-01-11T17:11:27.188Z,59.72
2023-01-11T17:14:11.998Z,59.86
2023-01-11T17:16:43.504Z,61.19
2023-01-11T17:19:17.926Z,59.97
2023-01-11T17:21:54.156Z,60.17
2023-01-11T17:24:26.342Z,60.91
2023-01-11T17:26:58.932Z,59.87
2023-01-11T17:29:31.491Z,60.30
2023-01-11T17:32:03.465Z,61.27
2023-01-11T17:34:35.774Z,60.81
2023-01-11T17:37:10.941Z,60.25
2023-01-11T17:39:45.083Z,61.72
2023-01-11T17:42:33.005Z,62.46
2023-01-11T17:45:15.222Z,61.49
2023-01-11T17:47:47.753Z,60.28
2023-01-11T17:50:30.575Z,61.17
2023-01-11T17:53:16.374Z,62.09
2023-01-11T17:55:54.402Z,61.54
2023-01-11T17:58:28.656Z,62.08
2023-01-11T18:01:20.354Z,61.36
2023-01-11T18:03:52.475Z,61.07
2023-01-11T18:06:28.525Z,63.29
2023-01-11T18:09:00.732Z,62.14
2023-01-11T18:11:32.809Z,62.54
2023-01-11T18:14:05.083Z,63.04
2023-01-11T18:16:35.644Z,62.17
2023-01-11T18:19:25.225Z,63.59
2023-01-11T18:21:56.676Z,63.58
2023-01-11T18:24:34.897Z,62.60
2023-01-11T18:27:24.463Z,63.11
2023-01-11T18:29:55.074Z,61.15
2023-01-11T18:32:25.569Z,62.05
2023-01-11T18:34:56.668Z,61.76
2023-01-11T18:37:26.913Z,62.32
2023-01-11T18:39:59.451Z,62.10
2023-01-11T18:42:32.944Z,63.01
2023-01-11T18:45:02.654Z,63.57
2023-01-11T18:47:32.943Z,62.41
2023-01-11T18:50:02.690Z,62.01
2023-01-11T18:52:33.086Z,63.17
2023-01-11T18:55:04.314Z,62.21
2023-01-11T18:57:34.293Z,61.94
2023-01-11T19:00:04.869Z,62.88
2023-01-11T19:02:42.547Z,62.40
2023-01-11T19:05:15.092Z,61.86
2023-01-11T19:07:45.253Z,61.87
2023-01-11T19:10:19.257Z,61.45
2023-01-11T19:12:49.588Z,61.37
2023-01-11T19:15:20.259Z,61.45
2023-01-11T19:17:49.796Z,62.43
2023-01-11T19:20:20.098Z,63.47
2023-01-11T19:22:50.485Z,63.15
2023-01-11T19:25:23.073Z,61.55
2023-01-11T19:27:54.978Z,62.07
2023-01-11T19:30:24.769Z,62.46
2023-01-11T19:32:55.188Z,62.63
2023-01-11T19:35:25.428Z,62.81
2023-01-11T19:37:56.077Z,61.66
2023-01-11T19:40:27.816Z,63.21
2023-01-11T19:42:58.289Z,63.08
2023-01-11T19:45:27.909Z,61.91
2023-01-11T19:47:58.381Z,61.99
2023-01-11T19:50:28.618Z,62.70
2023-01-11T19:52:58.503Z,62.49
2023-01-11T19:55:29.649Z,62.94
2023-01-11T19:57:59.282Z,64.61
2023-01-11T20:00:29.138Z,64.49
2023-01-11T20:03:05.240Z,63.22
2023-01-11T20:05:35.432Z,64.01
2023-01-11T20:08:05.559Z,63.86
2023-01-11T20:10:37.319Z,63.18
2023-01-11T20:13:06.996Z,63.76
2023-01-11T20:15:39.863Z,63.83
2023-01-11T20:18:10.174Z,62.60
2023-01-11T20:20:39.913Z,62.73
2023-01-11T20:23:09.941Z,63.43
2023-01-11T20:25:41.435Z,63.05
2023-01-11T20:28:11.387Z,65.30
2023-01-11T20:30:42.629Z,63.82
2023-01-11T20:33:12.037Z,65.50
2023-01-11T20:35:42.158Z,67.03
2023-01-11T20:38:12.552Z,65.13
2023-01-11T20:40:43.983Z,64.65
2023-01-11T20:43:15.490Z,64.63
2023-01-11T20:45:45.887Z,65.34
2023-01-11T20:48:15.973Z,64.18
2023-01-11T20:50:46.453Z,64.88
2023-01-11T20:53:16.807Z,65.41
2023-01-11T20:55:50.333Z,66.46
2023-01-11T20:58:19.798Z,67.73
2023-01-11T21:00:49.669Z,65.41
2023-01-11T21:03:20.809Z,64.58
2023-01-11T21:05:53.813Z,64.45
2023-01-11T21:08:23.901Z,64.00
2023-01-11T21:10:55.599Z,64.20
2023-01-11T21:13:25.458Z,64.39
2023-01-11T21:15:58.005Z,64.34
2023-01-11T21:18:27.525Z,66.00
2023-01-11T21:20:57.718Z,64.37
2023-01-11T21:23:27.699Z,66.79
2023-01-11T21:26:00.687Z,65.86
2023-01-11T21:28:30.459Z,66.84
2023-01-11T21:31:05.874Z,66.02
2023-01-11T21:33:37.429Z,65.11
2023-01-11T21:36:09.683Z,64.98
2023-01-11T21:38:39.605Z,64.53
2023-01-11T21:41:12.751Z,64.77
2023-01-11T21:43:43.773Z,65.46
2023-01-11T21:46:14.030Z,66.11
2023-01-11T21:48:43.693Z,65.28
2023-01-11T21:51:16.883Z,64.11
2023-01-11T21:53:47.559Z,64.18
2023-01-11T21:56:19.584Z,65.32
2023-01-11T21:58:50.592Z,65.52
2023-01-11T22:01:21.850Z,64.94
2023-01-11T22:03:51.855Z,64.97
2023-01-11T22:06:22.964Z,63.59
2023-01-11T22:08:52.709Z,64.42
2023-01-11T22:11:24.176Z,64.61
2023-01-11T22:13:53.729Z,63.72
2023-01-11T22:16:23.858Z,67.59
2023-01-11T22:18:53.655Z,68.11
2023-01-11T22:21:23.410Z,66.71
2023-01-11T22:23:56.556Z,68.74
2023-01-11T22:26:30.295Z,69.61
2023-01-11T22:29:18.710Z,70.87
2023-01-11T22:31:51.548Z,76.88
2023-01-11T22:34:22.475Z,78.16
2023-01-11T22:36:53.988Z,75.07
2023-01-11T22:39:24.448Z,79.18
2023-01-11T22:41:57.183Z,77.44
2023-01-11T22:44:26.939Z,78.63
2023-01-11T22:46:56.766Z,79.52
2023-01-11T22:49:27.486Z,73.84
2023-01-11T22:51:58.428Z,75.39
2023-01-11T22:54:28.857Z,75.22
2023-01-11T22:57:00.370Z,76.48
2023-01-11T22:59:31.743Z,79.04
2023-01-11T23:02:02.169Z,78.24
2023-01-11T23:04:33.775Z,78.56
2023-01-11T23:07:03.788Z,77.46
2023-01-11T23:09:33.496Z,80.26
2023-01-11T23:12:22.433Z,79.89
2023-01-11T23:14:53.012Z,79.99
2023-01-11T23:17:23.474Z,83.04
2023-01-11T23:19:54.536Z,81.62
2023-01-11T23:22:24.764Z,82.92
2023-01-11T23:24:54.795Z,85.12
2023-01-11T23:27:26.529Z,82.31
2023-01-11T23:29:57.258Z,82.02
2023-01-11T23:32:29.173Z,83.03
2023-01-11T23:34:59.128Z,83.28
2023-01-11T23:37:29.115Z,81.79
2023-01-11T23:39:59.333Z,80.05
2023-01-11T23:42:29.943Z,82.45
2023-01-11T23:44:59.754Z,84.56
2023-01-11T23:47:30.079Z,83.47
2023-01-11T23:50:02.236Z,81.61
2023-01-11T23:52:34.533Z,85.99
2023-01-11T23:55:05.104Z,81.72
2023-01-11T23:57:36.959Z,82.21
